Terminal Aerodrome Forecast
Issued by NWS

Home | Current Version | Previous Version | Text Only | Print | Product List | Glossary On
Versions: 1 2 3 4 5 6 7 8 9 10 11 12 13 14
000
FTUS41 KBGM 292330
TAFITH
TAF
KITH 292330Z 3000/3024 VRB06KT P6SM SCT050 BKN100
      TEMPO 3006/3010 5SM -SHRA BKN030 OVC060
     FM301100 16008KT P6SM BKN050
     FM301400 26007KT P6SM BKN030
     FM301700 26010KT P6SM BKN040=

USA.gov is the U.S. government's official web portal to all federal, state and local government web resources and services.